FW6456 Weather Reports


Display with metric or nautical units.
time (UTC)temp
F
wind
direction
speed
MPH
gust
MPH
rain 1hr
in
rain 24hr
in
rain mn
in
humidity
%
barometer
mb
20240521170212 85 108 1.0 2.0 0.00 0.00 0.00 68 3406.3
20240521165709 86 122 1.0 2.0 0.00 0.00 0.00 68 3406.2
20240521165208 86 118 5.0 7.0 0.00 0.00 0.00 67 3406.0
20240521164708 85 125 3.0 3.0 0.00 0.00 0.00 68 3406.0
20240521164204 86 197 3.0 5.0 0.00 0.00 0.00 67 3406.0
20240521163702 86 96 1.0 2.0 0.00 0.00 0.00 69 3406.1
20240521163201 86 157 3.0 5.0 0.00 0.00 0.00 68 3406.0
20240521162659 85 84 2.0 3.0 0.00 0.00 0.00 67 3406.1
20240521162158 85 140 1.0 2.0 0.00 0.00 0.00 69 3406.1
20240521161658 85 208 2.0 3.0 0.00 0.00 0.00 69 3406.0
20240521161157 85 252 5.0 7.0 0.00 0.00 0.00 69 3406.0
20240521160657 84 102 1.0 2.0 0.00 0.00 0.00 71 3405.8
20240521160156 83 51 3.0 3.0 0.00 0.00 0.00 72 3405.8
20240521155655 83 160 3.0 5.0 0.00 0.00 0.00 70 3405.9
20240521155153 83 100 2.0 2.0 0.00 0.00 0.00 75 3405.8
20240521154652 83 139 2.0 3.0 0.00 0.00 0.00 74 3405.9
20240521154151 83 122 1.0 2.0 0.00 0.00 0.00 74 3405.7
20240521153650 83 174 3.0 5.0 0.00 0.00 0.00 75 3405.8
20240521153148 83 113 1.0 2.0 0.00 0.00 0.00 76 3406.0
20240521152647 82 89 0.0 0.0 0.00 0.00 0.00 75 3406.0
20240521152146 82 45 2.0 3.0 0.00 0.00 0.00 78 3406.0
20240521151646 82 101 0.0 0.0 0.00 0.00 0.00 76 3406.0
20240521151145 82 160 2.0 2.0 0.00 0.00 0.00 77 3405.8
20240521150644 81 152 0.0 2.0 0.00 0.00 0.00 77 3406.2
20240521150143 81 129 0.0 2.0 0.00 0.00 0.00 79 3406.1
20240521145642 80 98 0.0 0.0 0.00 0.00 0.00 77 3406.1
20240521145140 80 92 1.0 2.0 0.00 0.00 0.00 79 3406.4
20240521144639 80 106 0.0 2.0 0.00 0.00 0.00 79 3406.4
20240521144138 80 87 0.0 2.0 0.00 0.00 0.00 79 3406.3
20240521143637 80 95 1.0 2.0 0.00 0.00 0.00 79 3406.0
20240521143135 79 83 0.0 0.0 0.00 0.00 0.00 82 3406.3
20240521142633 79 138 0.0 0.0 0.00 0.00 0.00 81 3406.4
20240521142133 79 139 1.0 2.0 0.00 0.00 0.00 81 3406.3
20240521141631 78 121 0.0 2.0 0.00 0.00 0.00 82 3406.2
20240521141131 78 103 0.0 0.0 0.00 0.00 0.00 82 3406.3
20240521140628 78 150 2.0 3.0 0.00 0.00 0.00 83 3406.1
20240521140109 78 116 0.0 2.0 0.00 0.00 0.00 83 3406.4
20240521135607 78 150 0.0 0.0 0.00 0.00 0.00 83 3406.3
20240521135106 78 149 1.0 2.0 0.00 0.00 0.00 84 3406.3
20240521134603 77 120 0.0 2.0 0.00 0.00 0.00 85 3406.4
20240521134103 77 120 0.0 0.0 0.00 0.00 0.00 85 3406.4
20240521133601 76 111 1.0 2.0 0.00 0.00 0.00 85 3406.3
20240521133100 76 111 0.0 2.0 0.00 0.00 0.00 85 3406.5
20240521132559 76 128 0.0 0.0 0.00 0.00 0.00 87 3406.6
20240521132057 75 108 0.0 2.0 0.00 0.00 0.00 87 3406.5
20240521131557 75 158 2.0 3.0 0.00 0.00 0.00 87 3406.5
20240521131056 75 131 0.0 0.0 0.00 0.00 0.00 88 3406.6
20240521130554 74 154 1.0 2.0 0.00 0.00 0.00 88 3406.6
20240521130053 74 120 2.0 2.0 0.00 0.00 0.00 89 3406.6
20240521125551 74 125 1.0 2.0 0.00 0.00 0.00 89 3406.5
20240521125050 73 127 2.0 3.0 0.00 0.00 0.00 91 3406.6
20240521124549 73 93 0.0 0.0 0.00 0.00 0.00 92 3406.5
20240521124048 72 161 0.0 0.0 0.00 0.00 0.00 93 3406.5
20240521123547 72 96 0.0 0.0 0.00 0.00 0.00 95 3406.5
20240521123047 71 146 0.0 0.0 0.00 0.00 0.00 96 3406.5
20240521122543 71 176 0.0 0.0 0.00 0.00 0.00 97 3406.4
20240521122042 70 177 0.0 0.0 0.00 0.00 0.00 98 3406.7
20240521121540 70 177 0.0 0.0 0.00 0.00 0.00 98 3406.6
20240521121039 70 177 0.0 0.0 0.00 0.00 0.00 99 3406.5
20240521120536 69 177 0.0 0.0 0.00 0.00 0.00 99 3406.3
20240521120036 69 177 0.0 0.0 0.00 0.00 0.00 99 3406.3
20240521115534 68 177 0.0 0.0 0.00 0.00 0.00 99 3406.6
20240521115034 68 177 0.0 0.0 0.00 0.00 0.00 99 3406.3
20240521114532 68 175 0.0 0.0 0.00 0.00 0.00 99 3406.3
20240521114032 68 175 0.0 0.0 0.00 0.00 0.00 99 3406.3
20240521113529 67 175 0.0 0.0 0.00 0.00 0.00 99 3406.4
20240521113029 67 175 0.0 0.0 0.00 0.00 0.00 99 3406.3
20240521112528 67 175 0.0 0.0 0.00 0.00 0.00 99 3406.3
20240521112027 67 175 0.0 0.0 0.00 0.00 0.00 99 3406.4
20240521111526 66 175 0.0 0.0 0.00 0.00 0.00 99 3406.3
20240521111024 66 175 0.0 0.0 0.00 0.00 0.00 99 3406.3
20240521110524 66 175 0.0 0.0 0.00 0.00 0.00 99 3406.2
20240521110023 66 175 0.0 0.0 0.00 0.00 0.00 99 3406.2
20240521105520 66 175 0.0 0.0 0.00 0.00 0.00 99 3406.0
20240521105019 66 175 0.0 0.0 0.00 0.00 0.00 99 3405.9
20240521104519 66 175 0.0 0.0 0.00 0.00 0.00 99 3405.9
20240521104017 66 175 0.0 0.0 0.00 0.00 0.00 99 3405.9
20240521103515 66 175 0.0 0.0 0.00 0.00 0.00 99 3405.8
20240521103013 66 175 0.0 0.0 0.00 0.00 0.00 99 3405.7
20240521102513 67 175 0.0 0.0 0.00 0.00 0.00 99 3405.6
20240521102012 66 175 0.0 0.0 0.00 0.00 0.00 99 3405.8
20240521101511 66 175 0.0 0.0 0.00 0.00 0.00 99 3405.6
20240521101009 66 175 0.0 0.0 0.00 0.00 0.00 99 3405.6
20240521100508 66 175 0.0 0.0 0.00 0.00 0.00 99 3405.7
20240521100006 66 175 0.0 0.0 0.00 0.00 0.00 99 3405.5
20240521095505 66 175 0.0 0.0 0.00 0.00 0.00 99 3405.5
20240521095000 66 175 0.0 0.0 0.00 0.00 0.00 99 3405.6
20240521094501 66 175 0.0 0.0 0.00 0.00 0.00 99 3405.5
20240521093958 66 175 0.0 0.0 0.00 0.00 0.00 99 3405.6
20240521093455 66 175 0.0 0.0 0.00 0.00 0.00 99 3405.8
20240521092955 66 175 0.0 0.0 0.00 0.00 0.00 99 3405.5
20240521092454 67 175 0.0 0.0 0.00 0.00 0.00 99 3405.6
20240521091954 66 175 0.0 0.0 0.00 0.00 0.00 99 3405.4
20240521091453 66 175 0.0 0.0 0.00 0.00 0.00 99 3405.4
20240521090952 66 175 0.0 0.0 0.00 0.00 0.00 99 3405.7
20240521090451 67 175 0.0 0.0 0.00 0.00 0.00 99 3405.6
20240521085951 67 175 0.0 0.0 0.00 0.00 0.00 99 3405.6
20240521085450 67 175 0.0 0.0 0.00 0.00 0.00 99 3405.4
20240521084948 67 175 0.0 0.0 0.00 0.00 0.00 99 3405.3
20240521084446 67 175 0.0 0.0 0.00 0.00 0.00 99 3405.3
20240521083945 67 175 0.0 0.0 0.00 0.00 0.00 99 3405.3
20240521083445 67 175 0.0 0.0 0.00 0.00 0.00 99 3405.4
20240521082944 67 175 0.0 0.0 0.00 0.00 0.00 99 3405.4
20240521082443 67 175 0.0 0.0 0.00 0.00 0.00 99 3405.2
20240521081942 67 175 0.0 0.0 0.00 0.00 0.00 99 3405.1
20240521081441 67 175 0.0 0.0 0.00 0.00 0.00 99 3405.2
20240521080940 67 175 0.0 0.0 0.00 0.00 0.00 99 3405.2
20240521080439 67 175 0.0 0.0 0.00 0.00 0.00 99 3405.2
20240521075939 67 175 0.0 0.0 0.00 0.00 0.00 99 3405.3
20240521075437 68 175 0.0 0.0 0.00 0.00 0.00 99 3405.1
20240521074934 68 175 0.0 0.0 0.00 0.00 0.00 99 3405.3
20240521074434 68 175 0.0 0.0 0.00 0.00 0.00 99 3405.4
20240521073933 68 175 0.0 0.0 0.00 0.00 0.00 99 3405.3
20240521073432 68 175 0.0 0.0 0.00 0.00 0.00 99 3405.4
20240521072932 68 175 0.0 0.0 0.00 0.00 0.00 99 3405.5
20240521072430 68 175 0.0 0.0 0.00 0.00 0.00 99 3405.4
20240521071930 68 175 0.0 0.0 0.00 0.00 0.00 99 3405.6
20240521071429 68 175 0.0 0.0 0.00 0.00 0.00 99 3405.7
20240521070929 68 175 0.0 0.0 0.00 0.00 0.00 99 3405.7
20240521070427 68 175 0.0 0.0 0.00 0.00 0.00 99 3405.7
20240521065925 68 175 0.0 0.0 0.00 0.00 0.00 99 3405.8
20240521065423 68 175 0.0 0.0 0.00 0.00 0.00 99 3405.5
20240521064922 68 175 0.0 0.0 0.00 0.00 0.00 99 3405.7
20240521064420 68 175 0.0 0.0 0.00 0.00 0.00 99 3405.9
20240521063918 68 175 0.0 0.0 0.00 0.00 0.00 99 3405.9
20240521063416 68 175 0.0 0.0 0.00 0.00 0.00 99 3405.8
20240521062916 68 175 0.0 0.0 0.00 0.00 0.00 99 3405.9
20240521062415 68 175 0.0 0.0 0.00 0.00 0.00 99 3405.9
20240521061915 68 175 0.0 0.0 0.00 0.00 0.00 99 3405.8
20240521061416 68 175 0.0 0.0 0.00 0.00 0.00 99 3405.9
20240521060914 68 175 0.0 0.0 0.00 0.00 0.00 99 3405.7
20240521060412 69 175 0.0 0.0 0.00 0.00 0.00 99 3405.9
20240521055910 69 175 0.0 0.0 0.00 0.00 0.00 99 3405.9
20240521055409 69 175 0.0 0.0 0.00 0.00 0.00 99 3406.0
20240521054907 69 175 0.0 0.0 0.00 0.00 0.00 99 3405.7
20240521054407 69 175 0.0 0.0 0.00 0.00 0.00 99 3405.8
20240521053905 69 175 0.0 0.0 0.00 0.00 0.00 99 3405.6
20240521053405 69 175 0.0 0.0 0.00 0.00 0.00 99 3405.7
20240521052904 69 175 0.0 0.0 0.00 0.00 0.00 99 3405.7
20240521052402 69 175 0.0 0.0 0.00 0.00 0.00 99 3405.9
20240521051900 69 175 0.0 0.0 0.00 0.00 0.00 99 3405.7
20240521051359 69 175 0.0 0.0 0.00 0.00 0.00 99 3405.8
20240521050856 69 175 0.0 0.0 0.00 0.00 0.00 99 3405.8
20240521050354 69 175 0.0 0.0 0.00 0.00 0.00 99 3405.7
20240521045854 69 175 0.0 0.0 0.00 0.00 0.00 99 3405.9
20240521045351 69 175 0.0 0.0 0.00 0.00 0.00 99 3405.8
20240521044850 69 175 0.0 0.0 0.00 0.00 0.00 99 3405.7
20240521044348 69 175 0.0 0.0 0.00 0.00 0.00 99 3405.8
20240521043846 70 175 0.0 0.0 0.00 0.00 0.00 99 3405.8
20240521043348 70 175 0.0 0.0 0.00 0.00 0.00 99 3405.8
20240521042842 70 175 0.0 0.0 0.00 0.00 0.00 99 3405.9
20240521042342 70 175 0.0 0.0 0.00 0.00 0.00 99 3405.8
20240521041841 70 175 0.0 0.0 0.00 0.00 0.00 99 3406.0
20240521041339 70 175 0.0 0.0 0.00 0.00 0.00 99 3406.1
20240521040838 70 175 0.0 0.0 0.00 0.00 0.00 98 3405.9
20240521040336 70 175 0.0 0.0 0.00 0.00 0.00 98 3406.0
20240521035833 70 175 0.0 0.0 0.00 0.00 0.00 98 3405.9
20240521035332 71 175 0.0 0.0 0.00 0.00 0.00 98 3406.0
20240521034831 71 175 0.0 0.0 0.00 0.00 0.00 98 3406.0
20240521034331 71 175 0.0 0.0 0.00 0.00 0.00 97 3406.1
20240521033830 71 175 0.0 0.0 0.00 0.00 0.00 97 3406.0
20240521033329 71 175 0.0 0.0 0.00 0.00 0.00 97 3406.0
20240521032829 71 175 0.0 0.0 0.00 0.00 0.00 97 3405.9
20240521032329 71 175 0.0 0.0 0.00 0.00 0.00 96 3405.9
20240521031828 71 175 0.0 0.0 0.00 0.00 0.00 96 3406.0
20240521031327 71 175 0.0 0.0 0.00 0.00 0.00 96 3405.8
20240521030825 72 175 0.0 0.0 0.00 0.00 0.00 95 3405.8
20240521030324 72 175 0.0 0.0 0.00 0.00 0.00 95 3405.7
20240521025822 72 175 0.0 0.0 0.00 0.00 0.00 95 3405.9
20240521025321 72 175 0.0 0.0 0.00 0.00 0.00 95 3405.7
20240521024821 72 175 0.0 0.0 0.00 0.00 0.00 94 3405.9
20240521024321 72 175 0.0 0.0 0.00 0.00 0.00 94 3405.7
20240521023819 73 175 0.0 0.0 0.00 0.00 0.00 93 3405.6
20240521023319 73 175 0.0 0.0 0.00 0.00 0.00 93 3405.6
20240521022817 73 175 0.0 0.0 0.00 0.00 0.00 92 3405.4
20240521022316 73 175 0.0 0.0 0.00 0.00 0.00 92 3405.4
20240521021815 73 175 0.0 0.0 0.00 0.00 0.00 91 3405.2
20240521021313 73 175 0.0 0.0 0.00 0.00 0.00 91 3405.4
20240521020811 73 175 0.0 0.0 0.00 0.00 0.00 90 3405.3
20240521020311 74 175 0.0 0.0 0.00 0.00 0.00 89 3405.2
20240521015808 74 175 0.0 0.0 0.00 0.00 0.00 89 3405.1
20240521015306 74 175 0.0 0.0 0.00 0.00 0.00 89 3405.3
20240521014805 74 175 0.0 0.0 0.00 0.00 0.00 88 3405.1
20240521014304 75 175 0.0 0.0 0.00 0.00 0.00 87 3405.1
20240521013802 75 175 0.0 0.0 0.00 0.00 0.00 86 3405.0
20240521013301 75 175 0.0 0.0 0.00 0.00 0.00 86 3405.1
20240521012757 75 175 0.0 0.0 0.00 0.00 0.00 85 3405.1
20240521012256 76 175 0.0 0.0 0.00 0.00 0.00 84 3404.9
20240521011748 76 175 0.0 0.0 0.00 0.00 0.00 84 3405.1
20240521011246 77 175 0.0 0.0 0.00 0.00 0.00 83 3405.1
20240521010745 77 175 0.0 0.0 0.00 0.00 0.00 82 3405.0
20240521010244 77 175 0.0 0.0 0.00 0.00 0.00 81 3405.1
20240521005743 78 175 0.0 0.0 0.00 0.00 0.00 80 3405.1
20240521005242 78 175 0.0 0.0 0.00 0.00 0.00 81 3405.0
20240521004741 79 175 0.0 0.0 0.00 0.00 0.00 79 3405.3
20240521004239 79 175 0.0 0.0 0.00 0.00 0.00 78 3405.3
20240521003739 80 175 0.0 0.0 0.00 0.00 0.00 78 3405.2
20240521003239 80 175 0.0 0.0 0.00 0.00 0.00 76 3405.2
20240521002737 80 175 0.0 0.0 0.00 0.00 0.00 76 3405.3
20240521002237 80 175 0.0 0.0 0.00 0.00 0.00 75 3405.1
20240521001735 81 175 0.0 0.0 0.00 0.00 0.00 74 3405.0
20240521001235 81 175 0.0 0.0 0.00 0.00 0.00 75 3405.2
20240521000734 81 175 0.0 0.0 0.00 0.00 0.00 73 3405.0
20240521000233 81 175 0.0 0.0 0.00 0.00 0.00 73 3404.7
20240520235731 82 175 0.0 0.0 0.00 0.00 0.00 73 3404.8
20240520235230 82 175 0.0 0.0 0.00 0.00 0.00 74 3405.1
20240520234728 82 175 0.0 0.0 0.00 0.00 0.00 72 3404.7
20240520234227 82 175 0.0 0.0 0.00 0.00 0.00 71 3404.9
20240520233726 82 175 0.0 0.0 0.00 0.00 0.00 68 3404.9
20240520233225 82 175 0.0 0.0 0.00 0.00 0.00 69 3405.0
20240520232723 82 175 0.0 0.0 0.00 0.00 0.00 69 3405.2
20240520232221 83 175 0.0 0.0 0.00 0.00 0.00 68 3404.8
20240520231721 83 175 0.0 0.0 0.00 0.00 0.00 68 3404.8
20240520231219 84 175 0.0 0.0 0.00 0.00 0.00 69 3405.0
20240520230719 85 175 0.0 0.0 0.00 0.00 0.00 65 3404.9
20240520230218 85 175 0.0 0.0 0.00 0.00 0.00 61 3404.7
20240520225718 85 175 0.0 0.0 0.00 0.00 0.00 60 3404.9
20240520225217 85 175 0.0 0.0 0.00 0.00 0.00 62 3405.0
20240520224715 86 175 0.0 0.0 0.00 0.00 0.00 58 3404.8
20240520224215 86 175 0.0 0.0 0.00 0.00 0.00 59 3405.1
20240520223713 86 175 0.0 0.0 0.00 0.00 0.00 58 3405.1
20240520223212 87 175 0.0 0.0 0.00 0.00 0.00 55 3405.1
20240520222710 87 174 0.0 0.0 0.00 0.00 0.00 55 3405.0
20240520222210 87 174 0.0 0.0 0.00 0.00 0.00 58 3405.1
20240520221709 88 175 0.0 0.0 0.00 0.00 0.00 55 3405.0
20240520221209 88 175 0.0 0.0 0.00 0.00 0.00 54 3405.0
20240520220707 88 173 0.0 2.0 0.00 0.00 0.00 54 3405.2
20240520220206 88 173 0.0 0.0 0.00 0.00 0.00 52 3405.2
20240520215702 88 167 1.0 2.0 0.00 0.00 0.00 57 3405.2
20240520215201 89 165 0.0 0.0 0.00 0.00 0.00 52 3405.2
20240520214700 88 149 0.0 0.0 0.00 0.00 0.00 56 3405.3
20240520214158 89 149 0.0 0.0 0.00 0.00 0.00 54 3405.3
20240520213658 88 142 1.0 2.0 0.00 0.00 0.00 53 3405.1
20240520213156 87 135 0.0 2.0 0.00 0.00 0.00 54 3405.1
20240520212656 87 168 2.0 2.0 0.00 0.00 0.00 53 3405.2
20240520212154 87 243 0.0 0.0 0.00 0.00 0.00 55 3405.4
20240520211654 87 244 1.0 2.0 0.00 0.00 0.00 54 3405.3
20240520211153 87 242 0.0 0.0 0.00 0.00 0.00 57 3405.4
20240520210651 88 128 1.0 2.0 0.00 0.00 0.00 52 3405.6
20240520210151 87 128 0.0 2.0 0.00 0.00 0.00 56 3405.6
20240520205650 88 54 0.0 2.0 0.00 0.00 0.00 54 3405.6
20240520205150 88 186 2.0 3.0 0.00 0.00 0.00 50 3405.7
20240520204649 88 308 2.0 3.0 0.00 0.00 0.00 49 3405.5
20240520204147 87 298 3.0 5.0 0.00 0.00 0.00 50 3405.6
20240520203645 88 153 3.0 3.0 0.00 0.00 0.00 52 3405.4
20240520203142 88 98 1.0 2.0 0.00 0.00 0.00 50 3405.8
20240520202642 88 317 0.0 2.0 0.00 0.00 0.00 51 3405.6
20240520202141 88 343 3.0 5.0 0.00 0.00 0.00 50 3405.8
20240520201639 88 150 0.0 0.0 0.00 0.00 0.00 52 3405.8
20240520201138 88 121 0.0 0.0 0.00 0.00 0.00 51 3405.8
20240520200636 88 89 0.0 0.0 0.00 0.00 0.00 53 3405.8
20240520200136 88 170 0.0 0.0 0.00 0.00 0.00 54 3405.9
20240520195633 88 153 0.0 0.0 0.00 0.00 0.00 51 3406.0
20240520195132 89 142 1.0 2.0 0.00 0.00 0.00 50 3406.1
20240520194631 89 93 1.0 2.0 0.00 0.00 0.00 50 3406.1
20240520194131 89 178 0.0 2.0 0.00 0.00 0.00 53 3406.1
20240520193630 88 288 1.0 3.0 0.00 0.00 0.00 51 3406.4
20240520193128 88 83 0.0 0.0 0.00 0.00 0.00 52 3406.2
20240520192628 88 85 2.0 2.0 0.00 0.00 0.00 48 3406.2
20240520192129 89 339 4.0 5.0 0.00 0.00 0.00 49 3406.4
20240520191627 88 160 1.0 2.0 0.00 0.00 0.00 52 3406.7
20240520191125 87 338 1.0 2.0 0.00 0.00 0.00 48 3406.5
20240520190625 87 164 0.0 0.0 0.00 0.00 0.00 50 3406.3
20240520190124 88 142 2.0 3.0 0.00 0.00 0.00 51 3406.3
20240520185622 89 256 0.0 0.0 0.00 0.00 0.00 50 3406.6
20240520185122 89 125 3.0 3.0 0.00 0.00 0.00 49 3406.5
20240520184621 88 112 0.0 0.0 0.00 0.00 0.00 52 3406.6
20240520184120 87 137 1.0 2.0 0.00 0.00 0.00 53 3406.6
20240520183618 87 202 0.0 0.0 0.00 0.00 0.00 52 3406.8
20240520183117 86 130 0.0 0.0 0.00 0.00 0.00 54 3406.8
20240520182616 87 135 0.0 0.0 0.00 0.00 0.00 52 3406.7
20240520182116 88 235 2.0 3.0 0.00 0.00 0.00 51 3407.0
20240520181613 87 108 1.0 2.0 0.00 0.00 0.00 53 3407.0
20240520181111 86 93 1.0 2.0 0.00 0.00 0.00 53 3406.9
20240520180610 87 152 1.0 2.0 0.00 0.00 0.00 52 3407.1
20240520180107 89 146 1.0 2.0 0.00 0.00 0.00 54 3406.9
20240520175606 88 233 2.0 3.0 0.00 0.00 0.00 48 3407.1
20240520175105 87 103 0.0 0.0 0.00 0.00 0.00 54 3407.1
20240520174605 86 102 0.0 0.0 0.00 0.00 0.00 56 3407.0
20240520174103 86 102 0.0 0.0 0.00 0.00 0.00 53 3407.1
20240520173602 87 152 0.0 2.0 0.00 0.00 0.00 52 3407.5
20240520173101 86 106 0.0 2.0 0.00 0.00 0.00 56 3407.3
20240520172600 86 163 2.0 3.0 0.00 0.00 0.00 59 3407.0
20240520172059 86 224 1.0 2.0 0.00 0.00 0.00 55 3407.3
20240520171557 86 123 0.0 0.0 0.00 0.00 0.00 55 3407.4
20240520171056 86 97 1.0 3.0 0.00 0.00 0.00 59 3407.4
20240520170554 85 134 0.0 0.0 0.00 0.00 0.00 62 3407.4